createdAt,value
2022-08-16T00:01:40.583Z,4.10
2022-08-16T00:04:09.627Z,2.22
2022-08-16T00:06:39.297Z,2.85
2022-08-16T00:09:06.813Z,2.47
2022-08-16T00:11:34.255Z,3.40
2022-08-16T00:14:02.271Z,3.10
2022-08-16T00:17:05.424Z,2.40
2022-08-16T00:19:25.128Z,2.80
2022-08-16T00:22:00.972Z,2.70
2022-08-16T00:24:31.256Z,2.30
2022-08-16T00:27:00.643Z,2.60
2022-08-16T00:29:29.963Z,3.70
2022-08-16T00:32:00.660Z,3.75
2022-08-16T00:34:43.227Z,3.90
2022-08-16T00:37:18.683Z,3.03
2022-08-16T00:39:56.961Z,3.60
2022-08-16T00:42:30.203Z,3.25
2022-08-16T00:45:01.654Z,2.33
2022-08-16T00:47:34.514Z,3.17
2022-08-16T00:50:04.806Z,3.38
2022-08-16T00:52:38.499Z,2.40
2022-08-16T00:55:17.834Z,3.63
2022-08-16T00:57:59.522Z,2.85
2022-08-16T01:00:30.808Z,2.92
2022-08-16T01:02:59.626Z,3.42
2022-08-16T01:05:27.452Z,3.80
2022-08-16T01:07:54.287Z,4.75
2022-08-16T01:10:32.932Z,3.13
2022-08-16T01:13:07.908Z,3.03
2022-08-16T01:15:37.836Z,2.75
2022-08-16T01:18:39.706Z,3.13
2022-08-16T01:21:16.138Z,4.18
2022-08-16T01:24:53.040Z,3.97
2022-08-16T01:27:09.523Z,4.17
2022-08-16T01:29:58.713Z,3.73
2022-08-16T01:32:33.708Z,3.65
2022-08-16T01:35:01.965Z,4.13
2022-08-16T01:37:35.810Z,4.72
2022-08-16T01:40:07.315Z,3.87
2022-08-16T01:42:34.737Z,2.92
2022-08-16T01:45:01.837Z,3.70
2022-08-16T01:47:29.358Z,3.45
2022-08-16T01:50:41.939Z,3.92
2022-08-16T01:52:47.296Z,3.10
2022-08-16T01:55:17.384Z,3.60
2022-08-16T01:57:53.679Z,3.30
2022-08-16T02:00:28.924Z,3.00
2022-08-16T02:02:56.897Z,3.22
2022-08-16T02:05:24.109Z,3.25
2022-08-16T02:07:51.902Z,3.80
2022-08-16T02:10:19.626Z,3.28
2022-08-16T02:12:51.915Z,3.10
2022-08-16T02:15:25.721Z,4.57
2022-08-16T02:17:53.822Z,4.38
2022-08-16T02:20:26.283Z,3.43
2022-08-16T02:22:55.271Z,3.92
2022-08-16T02:25:22.704Z,4.82
2022-08-16T02:27:51.477Z,3.60
2022-08-16T02:30:37.504Z,4.95
2022-08-16T02:33:09.441Z,3.60
2022-08-16T02:35:53.871Z,5.03
2022-08-16T02:38:24.460Z,3.40
2022-08-16T02:40:54.642Z,3.65
2022-08-16T02:43:27.370Z,4.18
2022-08-16T02:45:54.694Z,3.42
2022-08-16T02:48:29.550Z,3.30
2022-08-16T02:51:05.832Z,3.88
2022-08-16T02:53:34.837Z,3.47
2022-08-16T02:56:02.588Z,5.55
2022-08-16T02:58:33.308Z,3.83
2022-08-16T03:01:01.411Z,4.15
2022-08-16T03:04:29.993Z,4.28
2022-08-16T03:06:42.480Z,3.70
2022-08-16T03:09:07.485Z,4.60
2022-08-16T03:11:40.745Z,4.13
2022-08-16T03:14:08.345Z,3.60
2022-08-16T03:16:39.120Z,4.10
2022-08-16T03:19:22.980Z,4.93
2022-08-16T03:21:51.760Z,5.47
2022-08-16T03:24:29.127Z,3.90
2022-08-16T03:26:59.520Z,4.13
2022-08-16T03:29:30.553Z,4.50
2022-08-16T03:31:59.312Z,4.00
2022-08-16T03:34:26.713Z,3.85
2022-08-16T03:36:53.976Z,3.80
2022-08-16T03:39:21.133Z,4.15
2022-08-16T03:41:50.598Z,3.47
2022-08-16T03:44:44.991Z,4.00
2022-08-16T03:47:10.391Z,4.15
2022-08-16T03:49:37.852Z,4.10
2022-08-16T03:52:06.164Z,4.45
2022-08-16T03:54:35.778Z,4.27
2022-08-16T03:57:04.995Z,4.75
2022-08-16T03:59:32.506Z,4.53
2022-08-16T04:02:01.161Z,4.15
2022-08-16T04:04:33.089Z,4.27
2022-08-16T04:07:02.752Z,5.95
2022-08-16T04:09:35.600Z,4.38
2022-08-16T04:12:10.446Z,4.60
2022-08-16T04:14:38.681Z,5.82
2022-08-16T04:17:15.490Z,4.88
2022-08-16T04:19:45.735Z,4.82
2022-08-16T04:22:14.152Z,4.83
2022-08-16T04:24:54.221Z,5.20
2022-08-16T04:27:24.645Z,4.87
2022-08-16T04:30:03.052Z,4.60
2022-08-16T04:32:30.878Z,5.05
2022-08-16T04:34:58.022Z,4.72
2022-08-16T04:37:26.849Z,4.93
2022-08-16T04:39:57.403Z,6.15
2022-08-16T04:42:26.183Z,5.07
2022-08-16T04:44:56.105Z,5.60
2022-08-16T04:47:24.809Z,5.32
2022-08-16T04:49:52.762Z,5.95
2022-08-16T04:52:32.690Z,5.80
2022-08-16T04:55:01.609Z,7.15
2022-08-16T04:57:30.681Z,6.28
2022-08-16T04:59:57.813Z,5.90
2022-08-16T05:02:41.918Z,9.38
2022-08-16T05:05:17.068Z,5.60
2022-08-16T05:07:59.466Z,6.95
2022-08-16T05:10:28.272Z,7.95
2022-08-16T05:12:57.042Z,6.75
2022-08-16T05:15:24.148Z,5.57
2022-08-16T05:17:58.861Z,5.75
2022-08-16T05:20:38.644Z,6.28
2022-08-16T05:23:15.126Z,5.47
2022-08-16T05:25:48.175Z,5.60
2022-08-16T05:28:16.608Z,5.55
2022-08-16T05:30:43.774Z,6.72
2022-08-16T05:33:16.703Z,5.82
2022-08-16T05:35:55.489Z,6.03
2022-08-16T05:38:36.516Z,5.05
2022-08-16T05:41:07.368Z,5.33
2022-08-16T05:43:43.702Z,6.07
2022-08-16T05:46:31.023Z,6.03
2022-08-16T05:49:05.643Z,5.90
2022-08-16T05:51:38.490Z,6.45
2022-08-16T05:54:06.804Z,6.47
2022-08-16T05:56:34.291Z,5.63
2022-08-16T05:59:06.164Z,6.95
2022-08-16T06:01:38.204Z,5.68
2022-08-16T06:04:13.599Z,5.57
2022-08-16T06:06:56.053Z,5.75
2022-08-16T06:09:23.844Z,6.47
2022-08-16T06:11:51.432Z,5.43
2022-08-16T06:14:18.939Z,6.57
2022-08-16T06:16:50.992Z,4.80
2022-08-16T06:19:18.409Z,5.40
2022-08-16T06:21:45.884Z,5.88
2022-08-16T06:24:53.552Z,5.55
2022-08-16T06:27:09.888Z,6.72
2022-08-16T06:29:37.468Z,5.40
2022-08-16T06:32:04.838Z,5.38
2022-08-16T06:34:55.983Z,5.53
2022-08-16T06:37:23.488Z,4.47
2022-08-16T06:39:50.715Z,5.85
2022-08-16T06:42:18.868Z,5.20
2022-08-16T06:44:46.451Z,5.30
2022-08-16T06:47:17.186Z,4.78
2022-08-16T06:49:54.071Z,5.63
2022-08-16T06:52:58.321Z,5.32
2022-08-16T06:55:13.134Z,5.57
2022-08-16T06:57:41.415Z,4.65
2022-08-16T07:00:19.813Z,4.87
2022-08-16T07:02:53.667Z,5.87
2022-08-16T07:05:27.394Z,5.35
2022-08-16T07:08:11.565Z,4.45
2022-08-16T07:10:38.989Z,5.35
2022-08-16T07:13:11.624Z,5.28
2022-08-16T07:15:50.732Z,6.18
2022-08-16T07:18:20.115Z,4.53
2022-08-16T07:20:48.422Z,4.72
2022-08-16T07:23:16.007Z,4.78
2022-08-16T07:25:43.257Z,4.35
2022-08-16T07:28:20.682Z,4.20
2022-08-16T07:30:48.650Z,4.78
2022-08-16T07:33:21.426Z,3.72
2022-08-16T07:36:05.486Z,4.43
2022-08-16T07:38:34.641Z,4.63
2022-08-16T07:41:09.728Z,4.20
2022-08-16T07:43:40.350Z,4.10
2022-08-16T07:46:38.801Z,4.90
2022-08-16T07:49:02.360Z,5.53
2022-08-16T07:51:34.749Z,4.05
2022-08-16T07:54:10.185Z,3.60
2022-08-16T07:56:38.076Z,5.47
2022-08-16T07:59:05.940Z,3.60
2022-08-16T08:01:33.185Z,4.40
2022-08-16T08:04:02.822Z,3.35
2022-08-16T08:06:32.369Z,3.43
2022-08-16T08:09:00.186Z,4.03
2022-08-16T08:11:29.387Z,3.80
2022-08-16T08:14:03.231Z,4.32
2022-08-16T08:16:32.633Z,3.85
2022-08-16T08:19:02.423Z,3.70
2022-08-16T08:21:58.940Z,4.35
2022-08-16T08:24:17.616Z,4.25
2022-08-16T08:26:49.790Z,3.75
2022-08-16T08:29:17.561Z,4.83
2022-08-16T08:31:51.907Z,3.53
2022-08-16T08:34:19.321Z,5.70
2022-08-16T08:36:48.577Z,5.28
2022-08-16T08:39:15.939Z,4.40
2022-08-16T08:41:49.526Z,3.90
2022-08-16T08:44:27.988Z,4.30
2022-08-16T08:47:00.250Z,4.93
2022-08-16T08:49:45.998Z,3.80
2022-08-16T08:52:34.256Z,4.95
2022-08-16T08:55:10.478Z,4.50
2022-08-16T08:57:39.192Z,3.93
2022-08-16T09:00:13.488Z,3.42
2022-08-16T09:02:41.892Z,4.40
2022-08-16T09:05:14.939Z,3.35
2022-08-16T09:08:00.924Z,3.75
2022-08-16T09:10:30.056Z,5.05
2022-08-16T09:12:57.789Z,3.70
2022-08-16T09:15:26.308Z,3.20
2022-08-16T09:18:00.488Z,3.70
2022-08-16T09:20:30.264Z,3.38
2022-08-16T09:22:57.923Z,3.83
2022-08-16T09:25:26.234Z,3.45
2022-08-16T09:27:57.792Z,3.40
2022-08-16T09:30:34.728Z,4.50
2022-08-16T09:33:11.029Z,3.50
2022-08-16T09:35:39.131Z,3.53
2022-08-16T09:38:08.590Z,3.40
2022-08-16T09:40:43.203Z,4.43
2022-08-16T09:43:46.444Z,3.05
2022-08-16T09:45:59.531Z,4.75
2022-08-16T09:48:43.936Z,3.53
2022-08-16T09:51:13.008Z,4.43
2022-08-16T09:53:41.820Z,3.10
2022-08-16T09:56:17.768Z,4.50
2022-08-16T09:59:04.790Z,4.03
2022-08-16T10:01:33.408Z,3.47
2022-08-16T10:04:01.860Z,4.15
2022-08-16T10:06:33.817Z,3.70
2022-08-16T10:09:05.914Z,5.53
2022-08-16T10:11:54.742Z,4.70
2022-08-16T10:14:24.529Z,3.20
2022-08-16T10:17:02.344Z,5.30
2022-08-16T10:19:31.884Z,4.30
2022-08-16T10:21:59.889Z,2.92
2022-08-16T10:24:32.677Z,3.30
2022-08-16T10:27:22.299Z,5.57
2022-08-16T10:29:59.882Z,3.20
2022-08-16T10:32:30.381Z,4.05
2022-08-16T10:34:58.030Z,3.92
2022-08-16T10:37:32.475Z,5.13
2022-08-16T10:40:28.953Z,3.00
2022-08-16T10:42:55.639Z,3.60
2022-08-16T10:45:23.157Z,3.22
2022-08-16T10:48:03.043Z,3.05
2022-08-16T10:50:31.590Z,3.53
2022-08-16T10:52:59.347Z,2.90
2022-08-16T10:55:45.083Z,4.00
2022-08-16T10:58:14.026Z,3.30
2022-08-16T11:00:46.204Z,3.13
2022-08-16T11:06:05.943Z,3.43
2022-08-16T11:08:35.472Z,3.90
2022-08-16T11:11:06.451Z,3.40
2022-08-16T11:16:26.452Z,5.00
2022-08-16T11:19:05.195Z,2.95
2022-08-16T11:22:23.094Z,2.83
2022-08-16T11:24:41.515Z,2.97
2022-08-16T11:27:23.495Z,2.58
2022-08-16T11:29:52.760Z,2.90
2022-08-16T11:32:29.945Z,3.03
2022-08-16T11:35:10.487Z,3.03
2022-08-16T11:40:32.791Z,3.22
2022-08-16T11:43:00.225Z,3.10
2022-08-16T11:45:27.660Z,2.47
2022-08-16T11:48:00.219Z,2.63
2022-08-16T11:50:27.610Z,2.70
2022-08-16T11:52:54.608Z,2.55
2022-08-16T11:55:23.653Z,3.92
2022-08-16T11:57:56.456Z,2.67
2022-08-16T12:00:33.949Z,2.30
2022-08-16T12:03:12.324Z,2.65
2022-08-16T12:05:40.676Z,4.00
2022-08-16T12:08:09.389Z,2.92
2022-08-16T12:10:38.964Z,2.50
2022-08-16T12:13:07.479Z,2.30
2022-08-16T12:15:37.757Z,2.50
2022-08-16T12:18:05.438Z,2.50
2022-08-16T12:20:39.572Z,2.65
2022-08-16T12:23:07.248Z,2.40
2022-08-16T12:25:35.160Z,3.72
2022-08-16T12:28:02.862Z,2.85
2022-08-16T12:30:35.025Z,2.40
2022-08-16T12:33:06.653Z,3.38
2022-08-16T12:35:35.611Z,3.03
2022-08-16T12:38:08.823Z,2.42
2022-08-16T12:40:50.876Z,2.05
2022-08-16T12:43:23.702Z,3.97
2022-08-16T12:45:52.079Z,2.25
2022-08-16T12:48:42.335Z,3.00
2022-08-16T12:51:20.079Z,2.20
2022-08-16T12:53:52.679Z,2.55
2022-08-16T12:56:20.741Z,2.20
2022-08-16T12:58:51.862Z,2.85
2022-08-16T13:01:22.747Z,2.72
2022-08-16T13:03:59.144Z,3.00
2022-08-16T13:06:36.591Z,2.17
2022-08-16T13:09:19.220Z,2.50
2022-08-16T13:11:58.039Z,2.38
2022-08-16T13:14:32.119Z,2.67
2022-08-16T13:17:02.016Z,2.60
2022-08-16T13:19:55.979Z,2.88
2022-08-16T13:22:18.703Z,3.15
2022-08-16T13:24:46.887Z,2.22
2022-08-16T13:27:14.090Z,2.33
2022-08-16T13:29:43.929Z,2.50
2022-08-16T13:32:39.774Z,2.38
2022-08-16T13:34:58.635Z,2.72
2022-08-16T13:37:28.451Z,2.47
2022-08-16T13:39:55.658Z,7.47
2022-08-16T13:42:22.910Z,2.72
2022-08-16T13:44:56.608Z,2.78
2022-08-16T13:47:30.013Z,2.47
2022-08-16T13:49:57.544Z,2.97
2022-08-16T13:52:25.507Z,3.25
2022-08-16T13:55:01.251Z,2.85
2022-08-16T13:58:26.869Z,3.55
2022-08-16T14:00:19.537Z,2.20
2022-08-16T14:02:48.984Z,3.15
2022-08-16T14:05:21.910Z,2.50
2022-08-16T14:07:52.640Z,6.35
2022-08-16T14:10:20.361Z,2.05
2022-08-16T14:12:48.499Z,3.47
2022-08-16T14:15:16.192Z,2.50
2022-08-16T14:18:16.990Z,2.17
2022-08-16T14:20:30.939Z,3.40
2022-08-16T14:22:59.014Z,2.30
2022-08-16T14:25:26.957Z,2.30
2022-08-16T14:27:54.923Z,3.45
2022-08-16T14:30:23.629Z,2.10
2022-08-16T14:32:51.782Z,2.47
2022-08-16T14:35:21.597Z,2.40
2022-08-16T14:37:57.042Z,2.40
2022-08-16T14:40:24.463Z,2.25
2022-08-16T14:42:56.690Z,2.40
2022-08-16T14:45:24.992Z,3.17
2022-08-16T14:47:54.190Z,3.63
2022-08-16T14:50:23.513Z,2.58
2022-08-16T14:52:57.434Z,2.30
2022-08-16T14:55:26.119Z,2.28
2022-08-16T14:57:54.297Z,2.30
2022-08-16T15:00:33.242Z,3.90
2022-08-16T15:03:06.093Z,2.60
2022-08-16T15:05:33.795Z,3.58
2022-08-16T15:08:02.439Z,3.55
2022-08-16T15:10:31.962Z,2.28
2022-08-16T15:13:00.873Z,3.78
2022-08-16T15:15:29.239Z,2.55
2022-08-16T15:17:57.497Z,2.67
2022-08-16T15:20:26.865Z,2.67
2022-08-16T15:22:56.497Z,3.70
2022-08-16T15:25:27.596Z,2.78
2022-08-16T15:27:56.765Z,3.60
2022-08-16T15:30:47.827Z,3.15
2022-08-16T15:33:15.232Z,2.38
2022-08-16T15:35:43.358Z,2.35
2022-08-16T15:38:43.494Z,2.70
2022-08-16T15:40:59.125Z,2.42
2022-08-16T15:43:33.924Z,2.58
2022-08-16T15:46:35.027Z,2.50
2022-08-16T15:49:15.624Z,2.47
2022-08-16T15:51:45.522Z,4.20
2022-08-16T15:54:28.978Z,2.72
2022-08-16T15:57:00.213Z,3.45
2022-08-16T15:59:48.008Z,2.50
2022-08-16T16:02:20.570Z,3.53
2022-08-16T16:04:55.324Z,3.10
2022-08-16T16:07:22.590Z,3.42
2022-08-16T16:09:49.811Z,4.50
2022-08-16T16:12:53.823Z,2.42
2022-08-16T16:15:08.175Z,2.50
2022-08-16T16:17:35.484Z,2.13
2022-08-16T16:20:03.620Z,4.15
2022-08-16T16:22:31.713Z,3.17
2022-08-16T16:24:58.857Z,3.90
2022-08-16T16:27:26.074Z,3.15
2022-08-16T16:30:01.967Z,4.80
2022-08-16T16:32:34.321Z,3.30
2022-08-16T16:35:01.960Z,3.50
2022-08-16T16:37:31.030Z,2.80
2022-08-16T16:39:58.634Z,3.10
2022-08-16T16:42:29.907Z,3.75
2022-08-16T16:45:01.460Z,2.70
2022-08-16T16:47:29.439Z,2.65
2022-08-16T16:49:56.574Z,3.65
2022-08-16T16:52:44.372Z,3.58
2022-08-16T16:55:12.575Z,2.60
2022-08-16T16:57:59.708Z,3.65
2022-08-16T17:00:37.475Z,2.70
2022-08-16T17:03:15.412Z,3.85
2022-08-16T17:05:57.187Z,7.72
2022-08-16T17:08:29.908Z,3.13
2022-08-16T17:10:57.646Z,4.97
2022-08-16T17:13:25.162Z,3.70
2022-08-16T17:15:53.699Z,4.78
2022-08-16T17:19:16.313Z,3.08
2022-08-16T17:21:09.811Z,2.90
2022-08-16T17:23:58.339Z,3.15
2022-08-16T17:26:29.797Z,3.53
2022-08-16T17:29:00.226Z,2.75
2022-08-16T17:31:38.218Z,2.40
2022-08-16T17:36:55.463Z,2.40
2022-08-16T17:39:25.814Z,3.05
2022-08-16T17:39:27.207Z,3.25
2022-08-16T17:41:53.094Z,2.95
2022-08-16T17:44:20.546Z,2.67
2022-08-16T17:46:50.650Z,4.57
2022-08-16T17:49:19.840Z,2.58
2022-08-16T17:51:46.991Z,6.07
2022-08-16T17:54:29.796Z,2.65
2022-08-16T17:57:00.519Z,2.83
2022-08-16T17:59:28.237Z,2.67
2022-08-16T18:01:56.025Z,3.25
2022-08-16T18:04:49.824Z,4.57
2022-08-16T18:07:11.476Z,2.80
2022-08-16T18:09:40.781Z,4.85
2022-08-16T18:12:44.112Z,2.47
2022-08-16T18:15:06.009Z,3.65
2022-08-16T18:17:33.162Z,4.78
2022-08-16T18:20:00.310Z,3.95
2022-08-16T18:22:30.691Z,3.78
2022-08-16T18:24:58.099Z,8.35
2022-08-16T18:27:27.276Z,4.70
2022-08-16T18:29:55.019Z,4.40
2022-08-16T18:32:24.754Z,3.08
2022-08-16T18:34:52.588Z,3.65
2022-08-16T18:37:21.534Z,3.05
2022-08-16T18:39:48.760Z,4.20
2022-08-16T18:42:15.880Z,5.60
2022-08-16T18:44:44.969Z,4.40
2022-08-16T18:47:12.202Z,4.55
2022-08-16T18:49:39.322Z,4.05
2022-08-16T18:52:06.596Z,3.88
2022-08-16T18:55:02.470Z,4.82
2022-08-16T18:57:21.505Z,3.00
2022-08-16T18:59:48.617Z,7.35
2022-08-16T19:02:56.950Z,3.80
2022-08-16T19:05:12.383Z,3.50
2022-08-16T19:07:39.798Z,3.40
2022-08-16T19:10:07.926Z,3.53
2022-08-16T19:12:37.987Z,3.97
2022-08-16T19:15:16.259Z,3.53
2022-08-16T19:17:44.230Z,3.45
2022-08-16T19:20:11.818Z,4.18
2022-08-16T19:23:05.333Z,3.60
2022-08-16T19:25:46.079Z,5.22
2022-08-16T19:28:49.567Z,3.97
2022-08-16T19:31:03.620Z,4.63
2022-08-16T19:33:31.126Z,5.75
2022-08-16T19:35:58.238Z,7.30
2022-08-16T19:38:25.331Z,6.03
2022-08-16T19:40:52.440Z,4.38
2022-08-16T19:43:21.821Z,4.05
2022-08-16T19:45:49.424Z,5.70
2022-08-16T19:48:16.513Z,5.82
2022-08-16T19:50:43.723Z,4.50
2022-08-16T19:53:19.181Z,6.90
2022-08-16T19:55:47.442Z,3.90
2022-08-16T19:58:16.797Z,5.15
2022-08-16T20:00:44.988Z,4.07
2022-08-16T20:03:15.236Z,5.30
2022-08-16T20:05:43.448Z,6.32
2022-08-16T20:08:11.441Z,4.85
2022-08-16T20:10:38.940Z,4.85
2022-08-16T20:13:10.964Z,4.10
2022-08-16T20:15:41.083Z,4.13
2022-08-16T20:18:17.173Z,4.13
2022-08-16T20:20:52.315Z,5.15
2022-08-16T20:23:24.513Z,5.57
2022-08-16T20:25:53.337Z,6.03
2022-08-16T20:28:40.677Z,5.00
2022-08-16T20:31:07.617Z,5.20
2022-08-16T20:33:34.801Z,6.80
2022-08-16T20:36:01.871Z,5.70
2022-08-16T20:38:31.191Z,5.25
2022-08-16T20:40:58.473Z,4.85
2022-08-16T20:43:25.614Z,4.75
2022-08-16T20:45:52.716Z,6.22
2022-08-16T20:48:19.877Z,4.35
2022-08-16T20:50:46.977Z,5.43
2022-08-16T20:53:14.081Z,5.03
2022-08-16T20:55:41.708Z,4.65
2022-08-16T20:58:08.863Z,4.95
2022-08-16T21:00:35.957Z,4.40
2022-08-16T21:03:07.233Z,5.22
2022-08-16T21:05:34.572Z,4.50
2022-08-16T21:08:02.598Z,5.53
2022-08-16T21:10:49.228Z,5.03
2022-08-16T21:13:17.375Z,5.13
2022-08-16T21:15:44.580Z,5.07
2022-08-16T21:18:11.699Z,5.22
2022-08-16T21:20:38.868Z,4.65
2022-08-16T21:23:07.649Z,6.07
2022-08-16T21:25:35.629Z,6.95
2022-08-16T21:28:38.965Z,5.30
2022-08-16T21:30:51.950Z,5.10
2022-08-16T21:33:19.776Z,7.55
2022-08-16T21:35:47.789Z,5.65
2022-08-16T21:38:30.189Z,5.95
2022-08-16T21:40:58.808Z,4.95
2022-08-16T21:43:25.913Z,6.07
2022-08-16T21:45:55.836Z,5.45
2022-08-16T21:48:33.915Z,5.60
2022-08-16T21:51:03.097Z,7.65
2022-08-16T21:53:30.397Z,6.68
2022-08-16T21:55:58.477Z,5.35
2022-08-16T21:58:25.998Z,5.00
2022-08-16T22:00:53.527Z,5.78
2022-08-16T22:03:21.160Z,9.40
2022-08-16T22:06:13.277Z,10.13
2022-08-16T22:08:39.593Z,5.38
2022-08-16T22:11:17.252Z,8.88
2022-08-16T22:13:44.404Z,5.80
2022-08-16T22:16:24.754Z,6.38
2022-08-16T22:18:52.102Z,8.50
2022-08-16T22:21:19.696Z,6.50
2022-08-16T22:23:57.798Z,6.05
2022-08-16T22:26:31.090Z,7.43
2022-08-16T22:29:01.136Z,10.02
2022-08-16T22:31:28.461Z,5.85
2022-08-16T22:33:56.710Z,6.03
2022-08-16T22:36:24.104Z,8.07
2022-08-16T22:38:58.009Z,6.13
2022-08-16T22:41:25.943Z,6.25
2022-08-16T22:43:53.175Z,7.28
2022-08-16T22:46:20.763Z,8.02
2022-08-16T22:48:50.240Z,7.43
2022-08-16T22:51:18.424Z,6.63
2022-08-16T22:53:45.576Z,7.40
2022-08-16T22:56:12.707Z,7.07
2022-08-16T22:58:39.584Z,8.15
2022-08-16T23:01:07.875Z,6.35
2022-08-16T23:03:35.058Z,9.23
2022-08-16T23:06:02.198Z,7.55
2022-08-16T23:08:39.483Z,7.78
2022-08-16T23:11:13.282Z,8.20
2022-08-16T23:13:53.066Z,6.30
2022-08-16T23:16:21.915Z,6.63
2022-08-16T23:18:49.819Z,8.65
2022-08-16T23:21:17.952Z,11.75
2022-08-16T23:23:46.494Z,6.68
2022-08-16T23:26:45.406Z,7.28
2022-08-16T23:29:04.391Z,6.97
2022-08-16T23:31:32.490Z,7.78
2022-08-16T23:33:59.922Z,6.93
2022-08-16T23:36:26.865Z,6.90
2022-08-16T23:38:53.734Z,7.30
2022-08-16T23:41:20.462Z,7.63
2022-08-16T23:43:47.242Z,7.80
2022-08-16T23:46:17.100Z,9.57
2022-08-16T23:49:57.071Z,7.25
2022-08-16T23:51:32.112Z,7.28
2022-08-16T23:53:59.894Z,6.75
2022-08-16T23:56:26.659Z,7.28
2022-08-16T23:59:02.915Z,7.75
